Time;durP1;ratioP1;P1;durP2;ratioP2;P2;SDS_P1;SDS_P2;PMS_P1;PMS_P2;Temp;Humidity;BMP_temperature;BMP_pressure;BME280_temperature;BME280_humidity;BME280_pressure;Samples;Min_cycle;Max_cycle;Signal;HPM_P1;HPM_P2
2022/10/06 00:00:43;;;;;;;;;3.67;0.33;;;;;17.00;100.00;102408.09;5077945;28;46215;-73
2022/10/06 00:03:09;;;;;;;;;1.67;0.00;;;;;16.96;100.00;102400.94;5076981;28;45430;-74
2022/10/06 00:05:34;;;;;;;;;3.67;0.00;;;;;16.87;100.00;102403.50;5076928;28;45520;-74
2022/10/06 00:08:01;;;;;;;;;1.00;0.00;;;;;16.82;100.00;102405.22;5076044;28;57628;-73
2022/10/06 00:10:27;;;;;;;;;3.67;1.00;;;;;16.77;100.00;102400.72;5077117;28;47047;-73
2022/10/06 00:12:53;;;;;;;;;0.00;0.00;;;;;16.74;100.00;102414.06;5077478;28;45437;-73
2022/10/06 00:15:23;;;;;;;;;1.67;0.00;;;;;16.69;100.00;102412.19;5076764;28;58781;-73
2022/10/06 00:17:49;;;;;;;;;2.00;0.00;;;;;16.68;100.00;102427.28;5077723;28;45356;-73
2022/10/06 00:20:14;;;;;;;;;0.00;0.00;;;;;16.67;100.00;102429.91;5076974;28;47287;-74
2022/10/06 00:22:46;;;;;;;;;0.00;0.00;;;;;16.65;100.00;102440.59;5060760;28;45257;-74
2022/10/06 00:25:16;;;;;;;;;3.00;0.00;;;;;16.64;100.00;102451.25;5059531;28;45507;-73
2022/10/06 00:27:43;;;;;;;;;0.00;0.00;;;;;16.61;100.00;102453.84;5077361;28;45515;-74
2022/10/06 00:30:11;;;;;;;;;0.33;0.00;;;;;16.54;100.00;102442.22;5077095;28;47540;-74
2022/10/06 00:32:37;;;;;;;;;2.00;0.67;;;;;16.57;100.00;102444.06;5076248;27;45473;-73
2022/10/06 00:35:03;;;;;;;;;0.67;0.00;;;;;16.58;100.00;102456.50;5077262;28;45513;-74
2022/10/06 00:37:33;;;;;;;;;2.67;1.00;;;;;16.58;100.00;102460.06;5077101;28;45300;-74
2022/10/06 00:39:59;;;;;;;;;2.67;0.00;;;;;16.56;100.00;102459.13;5198639;22;46824;-73
2022/10/06 00:42:29;;;;;;;;;0.00;0.00;;;;;16.57;100.00;102466.28;5056077;28;45297;-73
2022/10/06 00:44:59;;;;;;;;;3.33;0.00;;;;;16.56;100.00;102467.13;5076050;28;45278;-73
2022/10/06 00:47:28;;;;;;;;;3.67;0.00;;;;;16.58;100.00;102476.06;5076752;28;45366;-73
2022/10/06 00:49:54;;;;;;;;;0.00;0.00;;;;;16.57;100.00;102471.63;5058627;28;46743;-73
2022/10/06 00:52:24;;;;;;;;;2.33;0.00;;;;;16.60;100.00;102474.31;5076413;28;46791;-72
2022/10/06 00:54:50;;;;;;;;;1.00;0.00;;;;;16.61;100.00;102470.75;5073773;28;45303;-73
2022/10/06 00:57:16;;;;;;;;;1.00;1.00;;;;;16.62;100.00;102466.31;5077136;27;57375;-73
2022/10/06 00:59:42;;;;;;;;;0.00;0.00;;;;;16.64;100.00;102478.81;5058472;28;47536;-73
2022/10/06 01:02:12;;;;;;;;;3.00;0.00;;;;;16.61;100.00;102467.19;5057955;28;58777;-73
2022/10/06 01:04:44;;;;;;;;;3.00;0.00;;;;;16.59;100.00;102480.50;5056124;28;45330;-73
2022/10/06 01:07:10;;;;;;;;;1.00;0.00;;;;;16.57;100.00;102484.06;5057007;28;45525;-73
2022/10/06 01:09:35;;;;;;;;;2.00;0.00;;;;;16.54;100.00;102479.56;5058239;28;46697;-73
2022/10/06 01:12:03;;;;;;;;;2.67;1.00;;;;;16.51;100.00;102484.84;5058060;28;53489;-73
2022/10/06 01:14:29;;;;;;;;;0.00;0.00;;;;;16.45;100.00;102482.09;5058803;28;45230;-73
2022/10/06 01:17:13;;;;;;;;;6.00;0.00;;;;;16.43;100.00;102487.41;5057901;28;47520;-72
2022/10/06 01:19:48;;;;;;;;;3.33;0.33;;;;;16.43;100.00;102494.53;5058395;28;46765;-73
2022/10/06 01:22:16;;;;;;;;;0.00;0.00;;;;;16.37;100.00;102495.34;5079383;27;45619;-73
2022/10/06 01:24:43;;;;;;;;;2.67;1.00;;;;;16.38;100.00;102505.13;5076811;28;45224;-73
2022/10/06 01:27:10;;;;;;;;;0.67;0.00;;;;;16.35;100.00;102510.44;5076745;28;45459;-73
2022/10/06 01:29:36;;;;;;;;;2.00;0.00;;;;;16.34;100.00;102513.06;5057732;28;56359;-73
2022/10/06 01:32:01;;;;;;;;;3.67;0.00;;;;;16.32;100.00;102510.38;5059584;28;60298;-73
2022/10/06 01:34:27;;;;;;;;;2.67;0.00;;;;;16.30;100.00;102509.47;5077931;28;45407;-72
2022/10/06 01:36:53;;;;;;;;;1.67;1.00;;;;;16.30;100.00;102516.53;5058292;28;45501;-72
2022/10/06 01:39:18;;;;;;;;;0.00;0.00;;;;;16.28;100.00;102516.53;5076287;28;46724;-72
2022/10/06 01:41:46;;;;;;;;;2.33;1.00;;;;;16.28;100.00;102518.31;5078228;27;45483;-72
2022/10/06 01:44:12;;;;;;;;;2.33;0.67;;;;;16.26;100.00;102514.72;5076228;28;45525;-73
2022/10/06 01:46:37;;;;;;;;;1.33;0.00;;;;;16.20;100.00;102513.78;5075709;28;45366;-72
2022/10/06 01:49:03;;;;;;;;;4.00;0.67;;;;;16.20;100.00;102515.53;5074989;28;62430;-72
2022/10/06 01:51:28;;;;;;;;;5.33;1.00;;;;;16.14;100.00;102512.75;5069741;28;48891;-72
2022/10/06 01:53:53;;;;;;;;;0.67;0.00;;;;;16.09;100.00;102502.06;5071309;28;55530;-72
2022/10/06 01:56:19;;;;;;;;;5.00;0.00;;;;;16.13;100.00;102517.19;5077225;27;50827;-72
2022/10/06 01:58:45;;;;;;;;;2.67;1.00;;;;;16.12;100.00;102512.75;5075372;28;46203;-73
2022/10/06 02:01:10;;;;;;;;;2.33;1.00;;;;;16.06;100.00;102511.75;5076411;28;45351;-72
2022/10/06 02:03:37;;;;;;;;;0.00;0.00;;;;;16.10;100.00;102518.94;5057278;28;45885;-73
2022/10/06 02:06:02;;;;;;;;;0.33;0.33;;;;;16.02;100.00;102515.25;5076071;28;45525;-72
2022/10/06 02:08:28;;;;;;;;;2.00;1.00;;;;;16.06;100.00;102535.75;5075599;28;47594;-72
2022/10/06 02:10:53;;;;;;;;;2.00;0.00;;;;;16.04;100.00;102538.41;5075438;28;56851;-73
2022/10/06 02:13:20;;;;;;;;;2.00;0.00;;;;;16.00;100.00;102533.00;5075463;28;55544;-73
2022/10/06 02:15:45;;;;;;;;;1.00;0.00;;;;;15.96;100.00;102529.38;5078003;28;45474;-72
2022/10/06 02:18:10;;;;;;;;;2.00;1.00;;;;;15.95;100.00;102532.91;5078571;28;63613;-73
2022/10/06 02:20:36;;;;;;;;;3.33;1.00;;;;;15.95;100.00;102543.56;5079355;28;47004;-73
2022/10/06 02:23:01;;;;;;;;;3.67;0.67;;;;;15.90;100.00;102548.81;5081229;27;57383;-73
2022/10/06 02:25:26;;;;;;;;;3.67;1.00;;;;;15.88;100.00;102555.91;5078918;28;55164;-73
2022/10/06 02:27:53;;;;;;;;;0.00;0.00;;;;;15.83;100.00;102552.25;5078278;28;62874;-73
2022/10/06 02:30:18;;;;;;;;;0.67;0.00;;;;;15.84;100.00;102548.72;5079192;28;45449;-73
2022/10/06 02:32:44;;;;;;;;;2.00;0.00;;;;;15.80;100.00;102554.84;5078685;28;45320;-72
2022/10/06 02:35:13;;;;;;;;;1.00;0.33;;;;;15.80;100.00;102560.19;5079486;28;45315;-72
2022/10/06 02:37:40;;;;;;;;;2.00;0.00;;;;;15.75;100.00;102556.53;5078506;28;46615;-73
2022/10/06 02:40:07;;;;;;;;;2.33;0.33;;;;;15.74;100.00;102560.09;5060525;28;45371;-73
2022/10/06 02:42:34;;;;;;;;;3.33;0.33;;;;;15.69;100.00;102556.44;5080028;27;45417;-73
2022/10/06 02:45:00;;;;;;;;;4.67;0.67;;;;;15.67;100.00;102555.53;5078967;28;45320;-72
2022/10/06 02:47:25;;;;;;;;;0.00;0.00;;;;;15.63;100.00;102562.56;5077746;28;60954;-72
2022/10/06 02:49:50;;;;;;;;;1.00;1.00;;;;;15.62;100.00;102559.84;5078779;28;45284;-73
2022/10/06 02:52:16;;;;;;;;;4.00;1.00;;;;;15.60;100.00;102565.13;5078280;28;56424;-73
2022/10/06 02:54:41;;;;;;;;;4.00;1.00;;;;;15.59;100.00;102578.41;5060100;28;53746;-73
2022/10/06 02:57:07;;;;;;;;;2.00;1.00;;;;;15.56;100.00;102578.38;5061156;28;46687;-72
2022/10/06 02:59:32;;;;;;;;;5.33;1.00;;;;;15.52;100.00;102577.41;5060419;28;45467;-73
2022/10/06 03:01:58;;;;;;;;;1.00;1.00;;;;;15.49;100.00;102584.44;5078795;28;45461;-73
2022/10/06 03:04:23;;;;;;;;;2.00;1.00;;;;;15.49;100.00;102588.00;5077857;28;45478;-73
2022/10/06 03:06:49;;;;;;;;;4.33;1.00;;;;;15.44;100.00;102582.56;5074659;28;63036;-73
2022/10/06 03:09:14;;;;;;;;;1.67;1.00;;;;;15.42;100.00;102583.44;5078326;28;45593;-73
2022/10/06 03:11:41;;;;;;;;;3.00;0.00;;;;;15.43;100.00;102583.44;5078433;28;45454;-73
2022/10/06 03:14:07;;;;;;;;;4.67;2.00;;;;;15.41;100.00;102592.28;5078807;28;45218;-73
2022/10/06 03:16:39;;;;;;;;;4.67;1.00;;;;;15.39;100.00;102588.69;5078104;28;47429;-73
2022/10/06 03:19:06;;;;;;;;;3.67;2.00;;;;;15.37;100.00;102593.09;5078348;28;45497;-73
2022/10/06 03:21:34;;;;;;;;;4.67;1.00;;;;;15.33;100.00;102594.78;5083390;27;45422;-72
2022/10/06 03:24:00;;;;;;;;;2.00;1.00;;;;;15.33;100.00;102597.44;5078822;28;45481;-73
2022/10/06 03:26:34;;;;;;;;;1.67;0.67;;;;;15.30;100.00;102596.50;5077483;28;46509;-73
2022/10/06 03:29:00;;;;;;;;;3.00;1.33;;;;;15.26;100.00;102599.97;5078053;28;45441;-73
2022/10/06 03:31:25;;;;;;;;;1.67;1.00;;;;;15.23;100.00;102602.56;5078273;28;45394;-72
2022/10/06 03:33:51;;;;;;;;;1.67;1.00;;;;;15.18;100.00;102611.38;5077916;27;45702;-73
2022/10/06 03:36:19;;;;;;;;;1.33;1.33;;;;;15.13;100.00;102602.38;5078485;28;47475;-72
2022/10/06 03:38:44;;;;;;;;;2.00;1.00;;;;;15.13;100.00;102614.78;5077613;28;45374;-73
2022/10/06 03:41:18;;;;;;;;;2.00;1.00;;;;;15.10;100.00;102622.69;5077327;28;53175;-73
2022/10/06 03:43:46;;;;;;;;;7.00;1.00;;;;;15.08;100.00;102621.78;5078132;28;45619;-72
2022/10/06 03:46:14;;;;;;;;;4.67;2.00;;;;;15.01;100.00;102618.06;5059637;28;47010;-73
2022/10/06 03:48:40;;;;;;;;;1.00;1.00;;;;;14.99;100.00;102626.91;5072085;28;45619;-73
2022/10/06 03:51:10;;;;;;;;;3.33;2.00;;;;;14.98;100.00;102639.31;5074504;28;45414;-73
2022/10/06 03:53:36;;;;;;;;;1.00;1.00;;;;;14.95;100.00;102639.22;5076904;27;45677;-73
2022/10/06 03:56:11;;;;;;;;;1.00;1.00;;;;;14.94;100.00;102637.44;5078628;27;46711;-73
2022/10/06 03:58:39;;;;;;;;;1.67;0.67;;;;;14.90;100.00;102639.13;5077613;28;45497;-73
2022/10/06 04:01:06;;;;;;;;;4.67;1.00;;;;;14.87;100.00;102646.16;5077791;28;45477;-74
2022/10/06 04:03:32;;;;;;;;;3.00;2.00;;;;;14.83;100.00;102647.84;5077902;28;45209;-73
2022/10/06 04:05:59;;;;;;;;;1.00;1.00;;;;;14.79;100.00;102653.03;5077241;28;47627;-73
2022/10/06 04:08:25;;;;;;;;;2.00;1.00;;;;;14.77;100.00;102652.13;5059275;28;45506;-73
2022/10/06 04:10:50;;;;;;;;;2.67;1.33;;;;;14.78;100.00;102661.91;5077311;28;45289;-73
2022/10/06 04:13:17;;;;;;;;;4.00;1.00;;;;;14.75;100.00;102668.03;5077445;28;45572;-72
2022/10/06 04:15:43;;;;;;;;;4.33;1.00;;;;;14.73;100.00;102666.22;5077444;28;46457;-73
2022/10/06 04:18:09;;;;;;;;;5.00;2.00;;;;;14.71;100.00;102667.94;5077018;28;45486;-73
2022/10/06 04:20:35;;;;;;;;;2.67;0.00;;;;;14.69;100.00;102665.22;5059726;28;45318;-73
2022/10/06 04:23:00;;;;;;;;;1.67;1.67;;;;;14.67;100.00;102673.19;5064219;28;45285;-72
2022/10/06 04:25:25;;;;;;;;;2.00;1.00;;;;;14.64;100.00;102664.22;5076739;28;64396;-73
2022/10/06 04:27:52;;;;;;;;;2.67;0.00;;;;;14.60;100.00;102665.94;5076466;28;56610;-73
2022/10/06 04:30:17;;;;;;;;;1.33;0.67;;;;;14.60;100.00;102671.25;5077425;28;45257;-73
2022/10/06 04:32:44;;;;;;;;;4.00;1.00;;;;;14.55;100.00;102672.00;5077055;28;45624;-73
2022/10/06 04:35:09;;;;;;;;;4.00;1.00;;;;;14.52;100.00;102675.47;5076892;28;46404;-73
2022/10/06 04:37:35;;;;;;;;;2.00;0.00;;;;;14.48;100.00;102678.00;5073791;28;56510;-73
2022/10/06 04:40:00;;;;;;;;;2.33;1.00;;;;;14.49;100.00;102683.38;5070776;28;55251;-73
2022/10/06 04:42:27;;;;;;;;;4.00;1.00;;;;;14.47;100.00;102693.06;5076547;28;56651;-72
2022/10/06 04:44:53;;;;;;;;;2.00;1.67;;;;;14.42;100.00;102692.91;5077121;28;46534;-72
2022/10/06 04:47:18;;;;;;;;;4.00;1.00;;;;;14.40;100.00;102685.78;5076030;28;57364;-73
2022/10/06 04:49:44;;;;;;;;;1.00;1.00;;;;;14.38;100.00;102695.44;5076072;28;55474;-72
2022/10/06 04:52:09;;;;;;;;;4.00;1.00;;;;;14.34;100.00;102701.56;5071619;28;54825;-72
2022/10/06 04:54:34;;;;;;;;;0.33;0.33;;;;;14.32;100.00;102711.22;5076730;28;45586;-72
2022/10/06 04:57:00;;;;;;;;;3.67;1.00;;;;;14.27;100.00;102703.13;5075708;27;59119;-72
2022/10/06 05:00:21;;;;;;;;;4.67;1.33;;;;;14.26;100.00;102709.31;5076502;27;45416;-72
2022/10/06 05:02:10;;;;;;;;;4.00;1.00;;;;;14.22;100.00;102709.19;5076432;28;45664;-73
2022/10/06 05:04:36;;;;;;;;;3.00;1.00;;;;;14.20;100.00;102703.84;5075886;27;45268;-72
2022/10/06 05:07:01;;;;;;;;;2.00;1.00;;;;;14.22;100.00;102711.84;5060416;28;45461;-72
2022/10/06 05:09:26;;;;;;;;;2.33;1.00;;;;;14.20;100.00;102708.28;5075426;28;54683;-70
2022/10/06 05:11:52;;;;;;;;;2.67;0.67;;;;;14.19;100.00;102714.44;5075849;28;55538;-71
2022/10/06 05:14:17;;;;;;;;;4.00;0.67;;;;;14.20;100.00;102713.59;5076104;28;56606;-71
2022/10/06 05:16:42;;;;;;;;;2.00;1.00;;;;;14.17;100.00;102711.75;5075686;27;45399;-71
2022/10/06 05:19:08;;;;;;;;;1.00;1.00;;;;;14.19;100.00;102719.75;5076121;28;45134;-71
2022/10/06 05:21:33;;;;;;;;;1.67;1.00;;;;;14.13;100.00;102710.78;5080861;27;45408;-71
2022/10/06 05:23:59;;;;;;;;;1.33;1.33;;;;;14.14;100.00;102709.91;5069864;27;45820;-72
2022/10/06 05:26:27;;;;;;;;;5.00;1.00;;;;;14.12;100.00;102714.28;5071950;28;45627;-71
2022/10/06 05:28:52;;;;;;;;;4.33;2.00;;;;;14.12;100.00;102716.06;5073675;28;45587;-71
2022/10/06 05:31:26;;;;;;;;;2.33;1.67;;;;;14.10;100.00;102720.41;5072433;28;45562;-71
2022/10/06 05:33:52;;;;;;;;;2.00;0.33;;;;;14.08;100.00;102720.38;5060521;28;46619;-71
2022/10/06 05:36:19;;;;;;;;;5.00;1.33;;;;;14.07;100.00;102720.34;5075648;28;45509;-72
2022/10/06 05:38:45;;;;;;;;;5.00;1.00;;;;;14.04;100.00;102734.41;5062191;27;45625;-72
2022/10/06 05:41:13;;;;;;;;;1.33;0.67;;;;;14.02;100.00;102728.19;5049636;28;45557;-72
2022/10/06 05:43:39;;;;;;;;;4.67;1.00;;;;;14.05;100.00;102730.91;5070662;28;46845;-72
2022/10/06 05:46:07;;;;;;;;;1.33;1.00;;;;;14.07;100.00;102741.59;5069750;28;45545;-72
2022/10/06 05:48:33;;;;;;;;;1.00;1.00;;;;;14.05;100.00;102736.22;5061946;28;45504;-72
2022/10/06 05:51:06;;;;;;;;;6.33;2.00;;;;;14.01;100.00;102734.34;5079654;28;52253;-72
2022/10/06 05:53:34;;;;;;;;;5.33;1.00;;;;;14.02;100.00;102729.94;5058947;28;46486;-72
2022/10/06 05:56:09;;;;;;;;;5.67;1.00;;;;;14.06;100.00;102747.75;5084125;27;45217;-72
2022/10/06 05:58:36;;;;;;;;;4.33;2.00;;;;;14.04;100.00;102747.72;5083285;28;45747;-72
2022/10/06 06:01:22;;;;;;;;;3.00;2.00;;;;;14.02;100.00;102745.88;5064199;28;45461;-72
2022/10/06 06:03:53;;;;;;;;;4.00;2.00;;;;;14.03;100.00;102750.31;5082151;28;47701;-72
2022/10/06 06:09:21;;;;;;;;;2.33;1.00;;;;;13.97;100.00;102744.84;5398027;22;45649;-72
2022/10/06 06:11:48;;;;;;;;;4.33;2.00;;;;;13.98;100.00;102742.22;5097323;27;47457;-72
2022/10/06 06:14:16;;;;;;;;;3.33;2.00;;;;;14.00;100.00;102755.53;5091359;27;45946;-72
2022/10/06 06:16:48;;;;;;;;;8.33;2.00;;;;;13.97;100.00;102745.75;5099234;27;45468;-73
2022/10/06 06:19:13;;;;;;;;;4.00;2.33;;;;;13.99;100.00;102753.75;5083141;27;45532;-72
2022/10/06 06:21:39;;;;;;;;;5.00;2.00;;;;;13.95;100.00;102752.75;5099831;27;46638;-72
2022/10/06 06:24:05;;;;;;;;;4.33;2.00;;;;;13.98;100.00;102754.63;5083007;27;45438;-70
2022/10/06 06:26:38;;;;;;;;;4.00;1.00;;;;;13.98;100.00;102768.78;5081358;27;45482;-71
2022/10/06 06:29:05;;;;;;;;;13.33;4.00;;;;;13.95;100.00;102765.13;5102086;27;45315;-71
2022/10/06 06:31:42;;;;;;;;;7.00;3.00;;;;;13.96;100.00;102774.94;5101539;27;45559;-71
2022/10/06 06:34:08;;;;;;;;;7.33;3.33;;;;;13.96;100.00;102770.50;5103966;27;47395;-71
2022/10/06 06:39:55;;;;;;;;;4.67;1.00;;;;;13.97;100.00;102777.63;5098897;27;45650;-70
2022/10/06 06:42:21;;;;;;;;;4.00;3.00;;;;;13.96;100.00;102791.75;5082038;27;54858;-72
2022/10/06 06:44:46;;;;;;;;;2.00;2.00;;;;;13.95;100.00;102789.94;5098969;27;45687;-71
2022/10/06 06:47:12;;;;;;;;;4.00;2.00;;;;;13.93;100.00;102788.09;5099560;27;62059;-71
2022/10/06 06:49:37;;;;;;;;;5.33;3.00;;;;;13.92;100.00;102794.28;5098171;27;52489;-71
2022/10/06 06:52:28;;;;;;;;;11.00;4.00;;;;;13.95;100.00;102810.28;5101203;27;45429;-72
2022/10/06 06:54:55;;;;;;;;;1.00;1.00;;;;;13.91;100.00;102800.47;5098630;27;45688;-70
2022/10/06 06:57:21;;;;;;;;;1.00;1.00;;;;;13.93;100.00;102798.72;5083199;27;45393;-71
2022/10/06 06:59:46;;;;;;;;;2.00;2.00;;;;;13.89;100.00;102801.28;5081702;27;45612;-72
2022/10/06 07:02:18;;;;;;;;;3.00;1.00;;;;;13.90;100.00;102799.53;5079930;27;63086;-71
2022/10/06 07:05:01;;;;;;;;;2.00;1.00;;;;;13.97;100.00;102812.16;5091705;27;46061;-71
2022/10/06 07:07:53;;;;;;;;;4.00;1.00;;;;;13.97;100.00;102808.59;5077589;27;45552;-71
2022/10/06 07:10:19;;;;;;;;;5.67;1.00;;;;;13.98;100.00;102813.03;5096869;27;45532;-71
2022/10/06 07:12:45;;;;;;;;;4.00;2.67;;;;;13.98;100.00;102823.66;5097503;27;51643;-71
2022/10/06 07:26:19;;;;;;;;;4.33;1.67;;;;;14.00;100.00;102833.47;5097261;27;45476;-71
2022/10/06 07:28:48;;;;;;;;;3.33;2.00;;;;;13.99;100.00;102836.97;5096564;27;61164;-72
2022/10/06 07:31:16;;;;;;;;;3.33;1.33;;;;;14.00;100.00;102836.13;5098071;27;45337;-72
2022/10/06 07:33:44;;;;;;;;;1.00;1.00;;;;;14.00;100.00;102844.09;5097755;27;45678;-71
2022/10/06 07:36:22;;;;;;;;;2.33;1.67;;;;;14.03;100.00;102849.50;5093986;27;61949;-71
2022/10/06 07:38:54;;;;;;;;;3.00;1.00;;;;;14.03;100.00;102846.84;5083929;27;45431;-71
2022/10/06 07:41:19;;;;;;;;;1.00;1.00;;;;;14.11;100.00;102858.63;5095724;27;45568;-71
2022/10/06 07:47:07;;;;;;;;;3.67;2.00;;;;;14.25;100.00;102863.41;5097482;27;45499;-73
2022/10/06 07:49:32;;;;;;;;;3.00;2.67;;;;;14.29;100.00;102860.88;5079245;27;45507;-72
2022/10/06 07:51:58;;;;;;;;;3.00;2.00;;;;;14.36;100.00;102872.56;5097691;27;60146;-72
2022/10/06 07:54:24;;;;;;;;;8.33;1.00;;;;;14.39;100.00;102876.22;5079878;27;45390;-70
2022/10/06 07:56:54;;;;;;;;;6.67;1.33;;;;;14.43;100.00;102871.88;5096621;27;46536;-72
2022/10/06 07:59:22;;;;;;;;;2.00;1.67;;;;;14.47;100.00;102871.16;5077281;27;45458;-73
2022/10/06 08:01:49;;;;;;;;;1.00;1.00;;;;;14.50;100.00;102878.31;5070520;27;45481;-71
2022/10/06 08:04:20;;;;;;;;;1.00;1.00;;;;;14.58;100.00;102884.72;5077504;27;46433;-71
2022/10/06 08:06:48;;;;;;;;;5.00;2.33;;;;;14.58;100.00;102879.41;5074418;28;60338;-71
2022/10/06 08:09:25;;;;;;;;;3.67;0.67;;;;;14.67;100.00;102885.00;5075875;28;45422;-71
2022/10/06 08:11:51;;;;;;;;;2.00;1.33;;;;;14.69;100.00;102888.56;5074441;27;45433;-71
2022/10/06 08:14:17;;;;;;;;;8.00;1.00;;;;;14.76;100.00;102884.34;5076812;28;45394;-71
2022/10/06 08:16:47;;;;;;;;;2.00;1.00;;;;;14.83;100.00;102892.50;5073951;28;65892;-71
2022/10/06 08:19:13;;;;;;;;;6.00;2.00;;;;;14.86;100.00;102892.63;5075853;28;45433;-71
2022/10/06 08:21:39;;;;;;;;;4.33;2.00;;;;;14.93;100.00;102901.66;5075725;28;45512;-71
2022/10/06 08:24:04;;;;;;;;;1.67;1.00;;;;;14.96;100.00;102893.72;5076745;28;47291;-71
2022/10/06 08:26:32;;;;;;;;;2.67;1.00;;;;;15.02;100.00;102901.91;5076703;28;45528;-71
2022/10/06 08:29:01;;;;;;;;;1.00;1.00;;;;;15.05;100.00;102883.31;5057754;28;45546;-71
2022/10/06 08:31:31;;;;;;;;;3.33;1.00;;;;;15.09;100.00;102895.84;5059919;28;45887;-71
2022/10/06 08:34:00;;;;;;;;;5.00;1.00;;;;;15.17;100.00;102904.91;5076494;28;45860;-71
2022/10/06 08:36:26;;;;;;;;;2.00;1.00;;;;;15.18;100.00;102903.19;5058435;28;46571;-70
2022/10/06 08:38:53;;;;;;;;;4.67;1.00;;;;;15.21;100.00;102908.56;5076790;28;45457;-72
2022/10/06 08:41:18;;;;;;;;;4.00;1.33;;;;;15.27;100.00;102913.13;5076712;28;45662;-72
2022/10/06 08:44:01;;;;;;;;;4.00;1.00;;;;;15.31;100.00;102909.69;5076182;28;45491;-72
2022/10/06 08:47:12;;;;;;;;;1.67;1.00;;;;;15.36;100.00;102910.72;5073705;28;46839;-72
2022/10/06 08:49:50;;;;;;;;;3.33;2.00;;;;;15.38;100.00;102914.31;5072091;28;45452;-72
2022/10/06 08:52:50;;;;;;;;;3.00;1.00;;;;;15.49;100.00;102912.78;5059280;28;45535;-72
2022/10/06 08:55:34;;;;;;;;;1.33;1.00;;;;;15.56;100.00;102917.44;5069164;28;45377;-73
2022/10/06 08:58:18;;;;;;;;;1.00;1.00;;;;;15.63;100.00;102922.06;5075947;28;46677;-73
2022/10/06 09:00:43;;;;;;;;;4.00;1.00;;;;;15.69;100.00;102926.63;5076145;28;45509;-73
2022/10/06 09:03:22;;;;;;;;;4.00;1.00;;;;;15.73;100.00;102919.63;5075875;28;45584;-72
2022/10/06 09:06:05;;;;;;;;;3.00;0.67;;;;;15.76;100.00;102922.34;5066337;28;45528;-73
2022/10/06 09:09:32;;;;;;;;;3.33;1.00;;;;;15.84;100.00;102926.09;5074214;28;45884;-73
2022/10/06 09:12:21;;;;;;;;;4.33;0.67;;;;;15.90;100.00;102928.88;5013077;28;45453;-73
2022/10/06 09:15:25;;;;;;;;;1.00;1.00;;;;;15.95;100.00;102925.47;5055895;28;45545;-73
2022/10/06 09:18:02;;;;;;;;;3.00;2.00;;;;;15.99;100.00;102923.78;5051110;28;45487;-73
2022/10/06 09:20:41;;;;;;;;;7.00;3.00;;;;;16.07;100.00;102927.47;5054911;28;46340;-73
2022/10/06 09:23:13;;;;;;;;;5.33;2.00;;;;;16.13;100.00;102932.94;5047904;28;45249;-74
2022/10/06 09:25:40;;;;;;;;;5.00;1.00;;;;;16.21;100.00;102934.03;5054634;28;45557;-73
2022/10/06 09:28:12;;;;;;;;;2.67;2.00;;;;;16.22;100.00;102925.16;5054308;28;55232;-73
2022/10/06 09:30:40;;;;;;;;;2.67;0.67;;;;;16.28;100.00;102928.81;5037759;28;47589;-73
2022/10/06 09:33:13;;;;;;;;;5.00;1.00;;;;;16.28;100.00;102919.06;5055099;28;45505;-73
2022/10/06 09:36:05;;;;;;;;;2.67;1.00;;;;;16.35;100.00;102929.00;5055286;28;45449;-73
2022/10/06 09:38:52;;;;;;;;;2.33;1.00;;;;;16.40;100.00;102935.28;5042367;28;45710;-73
2022/10/06 09:41:21;;;;;;;;;3.67;2.00;;;;;16.43;100.00;102918.47;5055542;28;46142;-73
2022/10/06 09:43:56;;;;;;;;;8.00;1.00;;;;;16.54;100.00;102919.59;5037772;28;45862;-73
2022/10/06 09:46:33;;;;;;;;;4.00;1.00;;;;;16.61;100.00;102928.59;5051620;28;45429;-74
2022/10/06 09:49:22;;;;;;;;;3.33;2.00;;;;;16.67;100.00;102926.03;5028102;28;45374;-73
2022/10/06 09:52:23;;;;;;;;;2.00;0.67;;;;;16.74;100.00;102931.59;5055149;28;47961;-73
2022/10/06 09:55:05;;;;;;;;;2.67;1.00;;;;;16.79;100.00;102928.09;4972735;28;63737;-75
2022/10/06 09:57:36;;;;;;;;;2.67;1.00;;;;;16.85;100.00;102934.44;5047300;28;45404;-74
2022/10/06 10:00:02;;;;;;;;;4.67;1.00;;;;;16.89;100.00;102928.31;5054340;28;45674;-73
2022/10/06 10:02:40;;;;;;;;;5.00;2.00;;;;;16.96;100.00;102923.97;5054895;28;47727;-72
2022/10/06 10:05:29;;;;;;;;;2.33;1.00;;;;;17.00;100.00;102924.06;5036457;28;63401;-72
2022/10/06 10:08:08;;;;;;;;;5.67;3.00;;;;;17.05;100.00;102924.16;5053111;28;45452;-73
2022/10/06 10:10:36;;;;;;;;;1.67;1.00;;;;;17.11;100.00;102924.25;5056411;28;45592;-72
2022/10/06 10:13:03;;;;;;;;;3.00;1.00;;;;;17.17;100.00;102926.13;5057644;28;46161;-74
2022/10/06 10:15:30;;;;;;;;;5.00;0.67;;;;;17.22;100.00;102928.00;5036618;28;45454;-72
2022/10/06 10:18:00;;;;;;;;;3.00;1.00;;;;;17.26;100.00;102920.94;5038298;28;45419;-74
2022/10/06 10:20:40;;;;;;;;;6.33;1.33;;;;;17.30;100.00;102914.75;5054778;28;46174;-75
2022/10/06 10:23:35;;;;;;;;;3.67;1.00;;;;;17.38;100.00;102920.25;5053350;28;47139;-73
2022/10/06 10:26:27;;;;;;;;;2.67;1.00;;;;;17.45;100.00;102923.03;5057157;28;45434;-74
2022/10/06 10:29:15;;;;;;;;;4.33;3.00;;;;;17.50;100.00;102909.75;5024687;28;45834;-74
2022/10/06 10:31:47;;;;;;;;;2.33;1.00;;;;;17.54;100.00;102920.50;5049608;28;45378;-74
2022/10/06 10:34:20;;;;;;;;;2.00;1.00;;;;;17.59;100.00;102915.25;5054163;28;46462;-73
2022/10/06 10:37:08;;;;;;;;;3.00;1.00;;;;;17.62;100.00;102909.03;5061111;28;45566;-74
2022/10/06 10:40:10;;;;;;;;;4.00;1.00;;;;;17.73;100.00;102908.34;5008860;28;45318;-74
2022/10/06 10:42:38;;;;;;;;;4.67;1.33;;;;;17.79;100.00;102913.81;5018615;28;45576;-73
2022/10/06 10:45:21;;;;;;;;;0.33;0.00;;;;;17.86;100.00;102905.88;5056180;28;46789;-74
2022/10/06 10:47:48;;;;;;;;;0.33;0.33;;;;;17.85;100.00;102902.31;5058314;28;45676;-74
2022/10/06 10:50:19;;;;;;;;;3.33;1.00;;;;;17.90;100.00;102900.59;5057296;28;45553;-74
2022/10/06 10:52:49;;;;;;;;;2.67;0.33;;;;;17.91;100.00;102905.06;5057110;28;45485;-74
2022/10/06 10:55:30;;;;;;;;;3.67;0.00;;;;;17.96;100.00;102903.34;5039982;28;46515;-74
2022/10/06 10:58:05;;;;;;;;;2.33;0.00;;;;;18.07;100.00;102906.16;5042793;28;45660;-74
2022/10/06 11:00:35;;;;;;;;;2.67;0.00;;;;;18.21;100.00;102900.97;5062401;28;45457;-75
2022/10/06 11:03:01;;;;;;;;;1.00;0.67;;;;;18.29;100.00;102900.19;5041577;28;45549;-72
2022/10/06 11:05:54;;;;;;;;;4.33;0.33;;;;;18.39;100.00;102900.31;5061837;28;45865;-72
2022/10/06 11:08:32;;;;;;;;;2.67;1.00;;;;;18.44;100.00;102901.28;5060308;28;45421;-72
2022/10/06 11:11:03;;;;;;;;;3.00;0.33;;;;;18.48;100.00;102904.00;5060356;28;45521;-72
2022/10/06 11:13:34;;;;;;;;;0.00;0.00;;;;;18.52;100.00;102897.78;5051727;28;45673;-72
2022/10/06 11:16:03;;;;;;;;;2.67;0.00;;;;;18.59;100.00;102891.63;5062154;28;47885;-72
2022/10/06 11:18:53;;;;;;;;;2.33;2.33;;;;;18.67;100.00;102891.72;5058698;28;45582;-72
2022/10/06 11:21:22;;;;;;;;;3.33;0.00;;;;;18.74;100.00;102893.59;5040982;28;45494;-75
2022/10/06 11:23:57;;;;;;;;;5.00;0.00;;;;;18.81;100.00;102903.50;5026834;28;45767;-73
2022/10/06 11:26:34;;;;;;;;;0.00;0.00;;;;;18.87;100.00;102896.41;5062744;28;46771;-73
2022/10/06 11:29:30;;;;;;;;;0.00;0.00;;;;;18.92;100.00;102897.34;5063130;28;47838;-72
2022/10/06 11:32:23;;;;;;;;;1.00;0.00;;;;;18.97;100.00;102890.25;5055193;28;45467;-73
2022/10/06 11:34:49;;;;;;;;;0.67;0.00;;;;;19.04;100.00;102884.06;5049103;28;45565;-73
2022/10/06 11:37:38;;;;;;;;;6.33;1.67;;;;;19.13;100.00;102885.94;5056887;28;46771;-73
2022/10/06 11:40:23;;;;;;;;;0.00;0.00;;;;;19.22;100.00;102885.97;5038141;28;45470;-73
2022/10/06 11:43:27;;;;;;;;;4.00;0.00;;;;;19.28;100.00;102881.59;5038893;28;45660;-73
2022/10/06 11:49:29;;;;;;;;;3.00;0.00;;;;;19.31;100.00;102870.88;5022585;28;45735;-72
2022/10/06 11:52:56;;;;;;;;;1.00;1.00;;;;;19.31;100.00;102876.25;5053709;28;45677;-73
2022/10/06 12:02:47;;;;;;;;;1.33;0.00;;;;;19.33;100.00;102862.84;5050043;28;46448;-72
2022/10/06 12:05:50;;;;;;;;;0.33;0.00;;;;;19.36;100.00;102854.84;5051928;28;45415;-71